createdAt,value
2018-03-06T00:02:00.175Z,9.87
2018-03-06T00:04:27.717Z,10.10
2018-03-06T00:06:55.277Z,9.07
2018-03-06T00:09:22.954Z,9.77
2018-03-06T00:11:50.526Z,9.33
2018-03-06T00:14:18.113Z,9.53
2018-03-06T00:16:45.763Z,10.07
2018-03-06T00:19:14.023Z,9.50
2018-03-06T00:21:43.219Z,9.57
2018-03-06T00:24:11.088Z,10.30
2018-03-06T00:26:38.674Z,9.87
2018-03-06T00:29:06.283Z,10.63
2018-03-06T00:31:33.973Z,10.37
2018-03-06T00:34:01.534Z,10.20
2018-03-06T00:36:29.062Z,8.70
2018-03-06T00:38:56.629Z,10.00
2018-03-06T00:41:24.197Z,10.30
2018-03-06T00:43:51.758Z,10.03
2018-03-06T00:46:19.965Z,10.33
2018-03-06T00:48:47.647Z,10.17
2018-03-06T00:51:16.479Z,10.80
2018-03-06T00:53:44.370Z,9.70
2018-03-06T00:56:12.152Z,10.80
2018-03-06T00:58:39.801Z,9.50
2018-03-06T01:01:07.451Z,10.10
2018-03-06T01:03:35.029Z,10.37
2018-03-06T01:06:02.596Z,10.87
2018-03-06T01:08:30.140Z,10.20
2018-03-06T01:10:57.801Z,10.73
2018-03-06T01:13:25.389Z,10.70
2018-03-06T01:15:53.787Z,10.73
2018-03-06T01:18:21.507Z,10.93
2018-03-06T01:20:49.097Z,10.37
2018-03-06T01:23:17.533Z,11.50
2018-03-06T01:25:46.117Z,11.57
2018-03-06T01:28:13.761Z,11.27
2018-03-06T01:30:41.559Z,11.40
2018-03-06T01:33:09.286Z,11.30
2018-03-06T01:35:36.886Z,12.03
2018-03-06T01:38:04.425Z,10.97
2018-03-06T01:40:31.991Z,12.13
2018-03-06T01:42:59.562Z,10.97
2018-03-06T01:45:27.125Z,11.37
2018-03-06T01:47:54.786Z,11.67
2018-03-06T01:50:22.656Z,11.33
2018-03-06T01:52:51.069Z,12.37
2018-03-06T01:55:19.718Z,12.80
2018-03-06T01:57:47.381Z,11.43
2018-03-06T02:00:15.293Z,11.80
2018-03-06T02:02:44.344Z,12.00
2018-03-06T02:05:12.202Z,12.63
2018-03-06T02:07:39.861Z,11.57
2018-03-06T02:10:07.410Z,12.20
2018-03-06T02:12:34.993Z,13.17
2018-03-06T02:15:02.534Z,12.57
2018-03-06T02:17:30.430Z,12.07
2018-03-06T02:19:57.971Z,12.70
2018-03-06T02:22:25.524Z,12.47
2018-03-06T02:24:53.205Z,12.47
2018-03-06T02:27:20.848Z,11.60
2018-03-06T02:29:48.438Z,12.30
2018-03-06T02:32:16.193Z,11.73
2018-03-06T02:34:43.998Z,12.63
2018-03-06T02:37:12.601Z,11.77
2018-03-06T02:39:40.291Z,12.30
2018-03-06T02:42:08.582Z,12.20
2018-03-06T02:44:36.152Z,12.03
2018-03-06T02:47:03.727Z,11.03
2018-03-06T02:49:31.277Z,11.47
2018-03-06T02:51:58.839Z,11.47
2018-03-06T02:54:26.425Z,12.10
2018-03-06T02:56:54.889Z,11.87
2018-03-06T02:59:22.492Z,11.30
2018-03-06T03:01:50.225Z,11.30
2018-03-06T03:04:17.870Z,10.97
2018-03-06T03:06:45.720Z,11.27
2018-03-06T03:09:13.736Z,10.73
2018-03-06T03:11:41.965Z,10.87
2018-03-06T03:14:12.069Z,11.40
2018-03-06T03:16:40.259Z,11.33
2018-03-06T03:19:08.788Z,11.97
2018-03-06T03:21:36.365Z,11.17
2018-03-06T03:24:03.942Z,11.20
2018-03-06T03:26:31.494Z,11.03
2018-03-06T03:28:59.049Z,11.00
2018-03-06T03:31:26.643Z,11.60
2018-03-06T03:33:54.206Z,11.57
2018-03-06T03:36:22.174Z,12.03
2018-03-06T03:38:49.792Z,12.23
2018-03-06T03:41:17.495Z,12.73
2018-03-06T03:43:45.164Z,12.13
2018-03-06T03:46:13.900Z,12.53
2018-03-06T03:48:42.739Z,12.00
2018-03-06T03:51:11.542Z,12.10
2018-03-06T03:53:39.378Z,12.97
2018-03-06T03:56:07.179Z,13.03
2018-03-06T03:58:34.768Z,12.73
2018-03-06T04:01:03.137Z,13.90
2018-03-06T04:03:31.452Z,13.60
2018-03-06T04:05:59.036Z,13.50
2018-03-06T04:08:26.736Z,14.07
2018-03-06T04:10:54.392Z,14.57
2018-03-06T04:13:22.860Z,14.03
2018-03-06T04:15:50.509Z,14.07
2018-03-06T04:18:18.169Z,14.27
2018-03-06T04:20:45.810Z,14.80
2018-03-06T04:23:13.905Z,14.47
2018-03-06T04:25:42.005Z,13.77
2018-03-06T04:28:09.665Z,13.03
2018-03-06T04:30:37.210Z,13.27
2018-03-06T04:33:04.773Z,14.13
2018-03-06T04:35:32.324Z,14.33
2018-03-06T04:37:59.893Z,13.50
2018-03-06T04:40:27.904Z,14.07
2018-03-06T04:42:55.485Z,13.80
2018-03-06T04:45:23.277Z,13.87
2018-03-06T04:47:50.943Z,12.73
2018-03-06T04:50:18.603Z,13.40
2018-03-06T04:52:46.398Z,13.40
2018-03-06T04:55:14.651Z,13.60
2018-03-06T04:57:42.513Z,13.97
2018-03-06T05:00:10.293Z,13.30
2018-03-06T05:02:38.859Z,13.73
2018-03-06T05:05:06.614Z,13.93
2018-03-06T05:07:34.238Z,13.80
2018-03-06T05:10:01.802Z,13.30
2018-03-06T05:12:29.360Z,14.53
2018-03-06T05:14:57.686Z,13.67
2018-03-06T05:17:25.234Z,13.97
2018-03-06T05:19:52.853Z,14.20
2018-03-06T05:22:20.789Z,13.93
2018-03-06T05:24:49.562Z,14.10
2018-03-06T05:27:18.021Z,15.00
2018-03-06T05:29:45.793Z,15.10
2018-03-06T05:32:14.021Z,14.80
2018-03-06T05:34:42.406Z,14.33
2018-03-06T05:37:10.842Z,16.70
2018-03-06T05:39:41.689Z,18.07
2018-03-06T05:42:09.322Z,19.03
2018-03-06T05:44:36.892Z,19.87
2018-03-06T05:47:04.470Z,20.40
2018-03-06T05:49:32.029Z,28.27
2018-03-06T05:51:59.904Z,30.73
2018-03-06T05:54:27.479Z,31.00
2018-03-06T05:56:55.045Z,32.77
2018-03-06T05:59:23.656Z,30.77
2018-03-06T06:01:51.210Z,28.00
2018-03-06T06:04:19.219Z,29.17
2018-03-06T06:06:47.639Z,28.27
2018-03-06T06:09:15.473Z,30.00
2018-03-06T06:11:44.469Z,30.20
2018-03-06T06:14:12.559Z,29.00
2018-03-06T06:16:41.636Z,32.50
2018-03-06T06:19:09.201Z,31.57
2018-03-06T06:21:36.725Z,30.50
2018-03-06T06:24:05.031Z,29.90
2018-03-06T06:26:32.559Z,29.97
2018-03-06T06:29:00.974Z,27.57
2018-03-06T06:31:28.545Z,28.17
2018-03-06T06:33:56.093Z,23.73
2018-03-06T06:36:23.858Z,24.27
2018-03-06T06:38:51.612Z,21.90
2018-03-06T06:41:19.367Z,21.67
2018-03-06T06:43:47.033Z,19.53
2018-03-06T06:46:15.914Z,22.23
2018-03-06T06:48:43.933Z,22.17
2018-03-06T06:51:12.272Z,21.60
2018-03-06T06:53:39.868Z,21.60
2018-03-06T06:56:07.512Z,19.57
2018-03-06T06:58:35.280Z,18.53
2018-03-06T07:01:02.927Z,18.77
2018-03-06T07:03:30.457Z,17.30
2018-03-06T07:05:58.027Z,17.47
2018-03-06T07:08:26.322Z,17.23
2018-03-06T07:10:53.954Z,17.37
2018-03-06T07:13:21.554Z,15.30
2018-03-06T07:15:49.242Z,15.13
2018-03-06T07:18:16.993Z,15.60
2018-03-06T07:20:44.958Z,15.97
2018-03-06T07:23:12.662Z,16.50
2018-03-06T07:25:41.166Z,16.87
2018-03-06T07:28:09.600Z,17.17
2018-03-06T07:30:37.865Z,15.53
2018-03-06T07:33:05.462Z,16.07
2018-03-06T07:35:33.017Z,15.97
2018-03-06T07:38:00.552Z,15.80
2018-03-06T07:40:28.105Z,14.47
2018-03-06T07:42:55.642Z,15.13
2018-03-06T07:45:23.196Z,14.70
2018-03-06T07:47:50.743Z,14.53
2018-03-06T07:50:19.178Z,14.07
2018-03-06T07:52:46.750Z,13.67
2018-03-06T07:55:15.401Z,14.47
2018-03-06T07:57:43.281Z,14.60
2018-03-06T08:00:11.131Z,14.00
2018-03-06T08:02:38.802Z,13.13
2018-03-06T08:05:06.593Z,12.63
2018-03-06T08:07:34.133Z,13.40
2018-03-06T08:10:01.666Z,12.87
2018-03-06T08:12:29.348Z,14.07
2018-03-06T08:14:56.872Z,11.80
2018-03-06T08:17:25.238Z,12.40
2018-03-06T08:19:52.773Z,12.30
2018-03-06T08:22:20.615Z,14.63
2018-03-06T08:24:48.202Z,14.63
2018-03-06T08:27:17.291Z,13.50
2018-03-06T08:29:45.137Z,14.10
2018-03-06T08:32:12.721Z,13.33
2018-03-06T08:34:40.409Z,12.37
2018-03-06T08:37:07.974Z,12.10
2018-03-06T08:39:35.969Z,12.13
2018-03-06T08:42:03.630Z,11.80
2018-03-06T08:44:31.420Z,12.50
2018-03-06T08:46:59.013Z,10.93
2018-03-06T08:49:26.533Z,11.57
2018-03-06T08:51:54.091Z,11.13
2018-03-06T08:54:21.620Z,11.27
2018-03-06T08:56:50.242Z,13.17
2018-03-06T08:59:18.212Z,12.50
2018-03-06T09:01:46.079Z,12.30
2018-03-06T09:04:14.151Z,12.77
2018-03-06T09:06:41.797Z,12.20
2018-03-06T09:09:09.376Z,12.93
2018-03-06T09:11:37.022Z,11.10
2018-03-06T09:14:04.847Z,10.10
2018-03-06T09:16:32.469Z,10.20
2018-03-06T09:19:00.047Z,10.07
2018-03-06T09:21:27.606Z,10.30
2018-03-06T09:23:55.127Z,9.97
2018-03-06T09:26:22.674Z,8.40
2018-03-06T09:28:51.555Z,9.33
2018-03-06T09:31:20.078Z,8.23
2018-03-06T09:33:48.477Z,9.10
2018-03-06T09:36:16.077Z,7.70
2018-03-06T09:38:44.436Z,7.23
2018-03-06T09:41:13.417Z,8.33
2018-03-06T09:43:42.278Z,9.33
2018-03-06T09:46:10.250Z,7.40
2018-03-06T09:48:37.922Z,8.10
2018-03-06T09:51:05.577Z,7.83
2018-03-06T09:53:33.101Z,7.67
2018-03-06T09:56:01.413Z,8.07
2018-03-06T09:58:28.986Z,7.43
2018-03-06T10:00:56.518Z,7.10
2018-03-06T10:03:24.069Z,6.87
2018-03-06T10:05:51.593Z,8.03
2018-03-06T10:08:19.624Z,6.47
2018-03-06T10:10:48.085Z,6.43
2018-03-06T10:13:16.412Z,6.83
2018-03-06T10:15:44.350Z,7.03
2018-03-06T10:18:12.998Z,7.37
2018-03-06T10:20:40.621Z,7.97
2018-03-06T10:23:08.195Z,7.37
2018-03-06T10:25:35.716Z,8.60
2018-03-06T10:28:03.272Z,8.27
2018-03-06T10:30:30.814Z,8.30
2018-03-06T10:32:58.348Z,8.00
2018-03-06T10:35:25.909Z,7.77
2018-03-06T10:37:53.517Z,7.30
2018-03-06T10:40:21.338Z,8.30
2018-03-06T10:42:49.010Z,7.50
2018-03-06T10:45:16.638Z,7.93
2018-03-06T10:47:44.567Z,8.10
2018-03-06T10:50:12.611Z,7.77
2018-03-06T10:52:40.300Z,7.43
2018-03-06T10:55:08.667Z,7.70
2018-03-06T10:57:36.954Z,7.83
2018-03-06T11:00:04.630Z,8.73
2018-03-06T11:02:32.183Z,7.93
2018-03-06T11:04:59.734Z,8.30
2018-03-06T11:07:27.261Z,6.90
2018-03-06T11:09:55.568Z,7.03
2018-03-06T11:12:23.139Z,7.20
2018-03-06T11:14:50.676Z,7.77
2018-03-06T11:17:19.153Z,7.47
2018-03-06T11:19:46.937Z,7.57
2018-03-06T11:22:15.133Z,6.90
2018-03-06T11:24:42.829Z,7.53
2018-03-06T11:27:11.569Z,7.03
2018-03-06T11:29:39.151Z,7.47
2018-03-06T11:32:06.684Z,7.93
2018-03-06T11:34:34.229Z,7.37
2018-03-06T11:37:02.597Z,7.43
2018-03-06T11:39:30.173Z,7.37
2018-03-06T11:41:58.577Z,8.17
2018-03-06T11:44:26.097Z,7.53
2018-03-06T11:46:54.398Z,8.60
2018-03-06T11:49:21.942Z,8.77
2018-03-06T11:51:50.793Z,8.67
2018-03-06T11:54:18.649Z,8.53
2018-03-06T11:56:47.318Z,9.13
2018-03-06T11:59:14.993Z,8.47
2018-03-06T12:01:43.259Z,7.90
2018-03-06T12:04:11.213Z,8.90
2018-03-06T12:06:38.872Z,28.10
2018-03-06T12:09:06.465Z,11.60
2018-03-06T12:11:34.173Z,15.33
2018-03-06T12:14:02.595Z,11.00
2018-03-06T12:16:30.122Z,10.77
2018-03-06T12:18:57.697Z,10.90
2018-03-06T12:21:25.227Z,9.70
2018-03-06T12:23:53.653Z,8.73
2018-03-06T12:26:21.329Z,9.30
2018-03-06T12:28:48.988Z,9.50
2018-03-06T12:31:16.610Z,9.13
2018-03-06T12:33:45.331Z,9.30
2018-03-06T12:36:12.989Z,9.50
2018-03-06T12:38:40.846Z,9.20
2018-03-06T12:41:08.791Z,9.50
2018-03-06T12:43:37.368Z,9.37
2018-03-06T12:46:06.405Z,9.57
2018-03-06T12:48:34.170Z,9.17
2018-03-06T12:51:01.826Z,9.67
2018-03-06T12:53:29.401Z,9.67
2018-03-06T12:55:56.970Z,10.17
2018-03-06T12:58:25.284Z,10.33
2018-03-06T13:00:53.709Z,10.37
2018-03-06T13:03:21.559Z,9.90
2018-03-06T13:05:49.617Z,10.40
2018-03-06T13:08:17.875Z,10.13
2018-03-06T13:13:21.143Z,10.17
2018-03-06T13:15:49.173Z,12.70
2018-03-06T13:18:17.276Z,9.03
2018-03-06T13:20:46.745Z,8.93
2018-03-06T13:23:15.166Z,8.87
2018-03-06T13:25:43.124Z,10.37
2018-03-06T13:28:10.901Z,8.20
2018-03-06T13:30:38.595Z,8.60
2018-03-06T13:33:06.144Z,8.83
2018-03-06T13:35:33.706Z,8.87
2018-03-06T13:38:01.238Z,9.03
2018-03-06T13:40:28.789Z,8.67
2018-03-06T13:42:56.317Z,8.57
2018-03-06T13:45:24.624Z,8.33
2018-03-06T13:47:52.192Z,8.30
2018-03-06T13:50:20.218Z,9.00
2018-03-06T13:52:48.890Z,8.73
2018-03-06T13:55:16.627Z,7.70
2018-03-06T13:57:44.674Z,7.53
2018-03-06T14:00:12.467Z,8.20
2018-03-06T14:02:40.225Z,8.73
2018-03-06T14:05:07.792Z,8.47
2018-03-06T14:07:35.581Z,8.87
2018-03-06T14:10:03.094Z,8.80
2018-03-06T14:12:30.662Z,8.50
2018-03-06T14:14:58.202Z,8.40
2018-03-06T14:17:26.509Z,8.13
2018-03-06T14:19:54.051Z,8.53
2018-03-06T14:22:21.585Z,8.77
2018-03-06T14:24:49.982Z,8.70
2018-03-06T14:27:17.666Z,8.10
2018-03-06T14:29:46.611Z,8.47
2018-03-06T14:32:15.149Z,8.13
2018-03-06T14:34:50.119Z,7.57
2018-03-06T14:37:17.697Z,7.20
2018-03-06T14:39:46.130Z,8.17
2018-03-06T14:42:13.939Z,8.53
2018-03-06T14:44:42.570Z,7.47
2018-03-06T14:47:12.954Z,7.37
2018-03-06T14:49:40.742Z,7.10
2018-03-06T14:52:08.318Z,6.83
2018-03-06T14:54:35.857Z,7.17
2018-03-06T14:57:03.377Z,6.27
2018-03-06T14:59:30.988Z,6.50
2018-03-06T15:01:58.507Z,6.47
2018-03-06T15:04:26.045Z,6.60
2018-03-06T15:06:53.591Z,6.97
2018-03-06T15:09:21.167Z,7.20
2018-03-06T15:11:48.834Z,7.77
2018-03-06T15:14:16.565Z,7.90
2018-03-06T15:16:44.334Z,7.93
2018-03-06T15:19:12.188Z,7.83
2018-03-06T15:21:40.582Z,7.97
2018-03-06T15:24:09.064Z,8.83
2018-03-06T15:26:36.616Z,8.60
2018-03-06T15:29:04.383Z,8.43
2018-03-06T15:31:31.914Z,8.17
2018-03-06T15:34:00.758Z,7.47
2018-03-06T15:36:28.282Z,7.90
2018-03-06T15:38:55.822Z,8.17
2018-03-06T15:41:24.171Z,8.13
2018-03-06T15:43:52.461Z,7.33
2018-03-06T15:46:20.242Z,7.30
2018-03-06T15:48:47.890Z,7.47
2018-03-06T15:51:16.320Z,7.07
2018-03-06T15:53:44.019Z,7.60
2018-03-06T15:56:12.498Z,7.53
2018-03-06T15:58:40.107Z,7.40
2018-03-06T16:01:08.604Z,7.43
2018-03-06T16:03:36.391Z,7.40
2018-03-06T16:06:03.990Z,7.57
2018-03-06T16:08:32.310Z,8.03
2018-03-06T16:10:59.890Z,7.30
2018-03-06T16:13:27.451Z,7.33
2018-03-06T16:15:55.055Z,7.50
2018-03-06T16:18:23.393Z,8.40
2018-03-06T16:20:50.981Z,7.20
2018-03-06T16:23:18.579Z,6.63
2018-03-06T16:25:46.154Z,6.93
2018-03-06T16:28:13.705Z,6.60
2018-03-06T16:30:41.479Z,6.97
2018-03-06T16:33:09.143Z,6.87
2018-03-06T16:35:36.938Z,7.50
2018-03-06T16:38:05.338Z,7.50
2018-03-06T16:40:33.977Z,8.00
2018-03-06T16:43:01.669Z,6.70
2018-03-06T16:45:30.637Z,6.10
2018-03-06T16:47:58.497Z,5.80
2018-03-06T16:50:26.194Z,6.00
2018-03-06T16:52:53.822Z,5.57
2018-03-06T16:55:21.386Z,6.17
2018-03-06T16:57:48.966Z,6.40
2018-03-06T17:00:16.522Z,5.43
2018-03-06T17:02:44.678Z,6.13
2018-03-06T17:05:12.360Z,6.57
2018-03-06T17:07:39.999Z,5.90
2018-03-06T17:10:07.760Z,5.77
2018-03-06T17:12:35.415Z,5.37
2018-03-06T17:15:03.094Z,5.80
2018-03-06T17:17:30.842Z,5.33
2018-03-06T17:19:58.523Z,6.30
2018-03-06T17:22:26.177Z,6.53
2018-03-06T17:24:53.832Z,6.07
2018-03-06T17:27:21.416Z,6.37
2018-03-06T17:29:48.986Z,6.47
2018-03-06T17:32:16.606Z,6.10
2018-03-06T17:34:44.183Z,6.10
2018-03-06T17:37:11.775Z,6.07
2018-03-06T17:39:39.514Z,5.50
2018-03-06T17:42:07.122Z,7.03
2018-03-06T17:44:35.579Z,6.67
2018-03-06T17:47:03.437Z,22.53
2018-03-06T17:49:31.087Z,37.20
2018-03-06T17:51:58.749Z,11.30
2018-03-06T17:54:26.898Z,13.50
2018-03-06T17:56:54.507Z,10.70
2018-03-06T17:59:22.068Z,46.27
2018-03-06T18:01:49.650Z,42.87
2018-03-06T18:04:17.216Z,34.97
2018-03-06T18:06:44.795Z,24.97
2018-03-06T18:09:13.116Z,37.80
2018-03-06T18:11:40.871Z,40.57
2018-03-06T18:14:08.512Z,51.00
2018-03-06T18:16:36.168Z,29.47
2018-03-06T18:19:04.058Z,22.47
2018-03-06T18:21:31.730Z,13.60
2018-03-06T18:23:59.350Z,9.30
2018-03-06T18:26:26.964Z,8.67
2018-03-06T18:28:54.590Z,9.07
2018-03-06T18:31:22.188Z,9.20
2018-03-06T18:33:50.022Z,8.80
2018-03-06T18:36:17.603Z,8.43
2018-03-06T18:38:45.175Z,8.47
2018-03-06T18:41:12.750Z,9.97
2018-03-06T18:43:40.344Z,8.70
2018-03-06T18:46:08.142Z,9.40
2018-03-06T18:48:35.870Z,14.70
2018-03-06T18:51:16.482Z,14.73
2018-03-06T18:53:44.152Z,13.90
2018-03-06T18:56:12.094Z,11.60
2018-03-06T18:58:40.071Z,13.40
2018-03-06T19:04:20.578Z,11.30
2018-03-06T19:07:13.928Z,10.17
2018-03-06T19:09:41.594Z,10.20
2018-03-06T19:12:10.265Z,11.07
2018-03-06T19:14:39.066Z,14.07
2018-03-06T19:17:06.940Z,13.20
2018-03-06T19:19:34.795Z,10.50
2018-03-06T19:22:02.451Z,9.67
2018-03-06T19:24:32.579Z,10.37
2018-03-06T19:27:02.390Z,12.50
2018-03-06T19:29:30.052Z,11.57
2018-03-06T19:31:57.636Z,10.63
2018-03-06T19:34:25.237Z,10.07
2018-03-06T19:36:53.538Z,11.00
2018-03-06T19:39:21.064Z,10.20
2018-03-06T19:41:49.487Z,9.00
2018-03-06T19:44:17.091Z,9.27
2018-03-06T19:46:44.592Z,8.70
2018-03-06T19:49:12.157Z,8.63
2018-03-06T19:51:39.774Z,7.93
2018-03-06T19:54:07.318Z,8.23
2018-03-06T19:56:35.047Z,8.93
2018-03-06T19:59:03.062Z,8.43
2018-03-06T20:01:31.678Z,8.57
2018-03-06T20:03:59.678Z,8.27
2018-03-06T20:06:27.238Z,8.20
2018-03-06T20:08:54.761Z,7.87
2018-03-06T20:11:23.070Z,7.97
2018-03-06T20:13:50.597Z,9.57
2018-03-06T20:16:19.150Z,9.20
2018-03-06T20:18:47.675Z,9.90
2018-03-06T20:21:15.972Z,9.63
2018-03-06T20:23:43.540Z,8.23
2018-03-06T20:26:11.583Z,7.87
2018-03-06T20:28:39.444Z,8.23
2018-03-06T20:34:13.190Z,7.60
2018-03-06T20:36:40.968Z,7.43
2018-03-06T20:39:14.094Z,7.60
2018-03-06T20:41:41.628Z,7.43
2018-03-06T20:44:09.194Z,8.40
2018-03-06T20:46:42.797Z,8.03
2018-03-06T20:49:10.738Z,7.47
2018-03-06T20:51:38.413Z,6.80
2018-03-06T20:54:11.656Z,7.63
2018-03-06T20:56:39.408Z,7.50
2018-03-06T20:59:07.826Z,6.73
2018-03-06T21:01:35.631Z,6.93
2018-03-06T21:04:03.584Z,7.33
2018-03-06T21:06:31.868Z,6.87
2018-03-06T21:08:59.632Z,6.93
2018-03-06T21:11:27.457Z,6.60
2018-03-06T21:13:55.909Z,6.33
2018-03-06T21:16:23.606Z,6.83
2018-03-06T21:18:51.899Z,7.20
2018-03-06T21:21:19.579Z,6.80
2018-03-06T21:23:47.106Z,6.87
2018-03-06T21:26:15.767Z,6.83
2018-03-06T21:28:43.609Z,7.17
2018-03-06T21:31:11.254Z,7.23
2018-03-06T21:33:39.018Z,6.73
2018-03-06T21:36:06.797Z,7.20
2018-03-06T21:38:34.448Z,7.43
2018-03-06T21:41:02.797Z,7.70
2018-03-06T21:43:30.669Z,7.50
2018-03-06T21:45:58.256Z,7.90
2018-03-06T21:48:25.854Z,7.80
2018-03-06T21:50:53.428Z,7.23
2018-03-06T21:53:21.713Z,6.53
2018-03-06T21:55:50.013Z,6.87
2018-03-06T21:58:21.605Z,7.33
2018-03-06T22:00:50.340Z,7.67
2018-03-06T22:03:18.659Z,7.00
2018-03-06T22:05:46.181Z,7.57
2018-03-06T22:08:14.486Z,7.37
2018-03-06T22:10:42.105Z,7.00
2018-03-06T22:13:10.833Z,7.03
2018-03-06T22:15:38.625Z,6.43
2018-03-06T22:18:07.182Z,9.03
2018-03-06T22:20:35.251Z,7.60
2018-03-06T22:23:04.148Z,7.37
2018-03-06T22:25:32.300Z,6.80
2018-03-06T22:28:00.524Z,7.83
2018-03-06T22:30:28.156Z,6.90
2018-03-06T22:32:56.629Z,7.20
2018-03-06T22:35:24.149Z,7.00
2018-03-06T22:37:52.465Z,7.03
2018-03-06T22:40:19.985Z,6.67
2018-03-06T22:42:47.501Z,6.70
2018-03-06T22:45:15.154Z,6.50
2018-03-06T22:47:42.689Z,6.07
2018-03-06T22:50:11.174Z,7.27
2018-03-06T22:52:38.805Z,6.60
2018-03-06T22:55:07.345Z,6.33
2018-03-06T22:57:34.921Z,7.10
2018-03-06T23:00:02.871Z,6.97
2018-03-06T23:02:30.840Z,6.60
2018-03-06T23:04:59.374Z,6.50
2018-03-06T23:07:26.997Z,6.90
2018-03-06T23:09:54.561Z,7.20
2018-03-06T23:12:22.076Z,7.13
2018-03-06T23:14:49.650Z,6.90
2018-03-06T23:17:17.179Z,7.90
2018-03-06T23:19:45.476Z,7.17
2018-03-06T23:22:13.033Z,7.33
2018-03-06T23:24:40.686Z,6.97
2018-03-06T23:27:09.049Z,7.20
2018-03-06T23:29:36.672Z,6.60
2018-03-06T23:32:04.427Z,6.43
2018-03-06T23:34:32.704Z,7.40
2018-03-06T23:37:00.778Z,6.33
2018-03-06T23:39:28.567Z,6.93
2018-03-06T23:41:56.986Z,6.63
2018-03-06T23:44:25.407Z,6.27
2018-03-06T23:46:52.921Z,6.17
2018-03-06T23:49:21.570Z,6.50
2018-03-06T23:51:49.109Z,6.23
2018-03-06T23:54:16.890Z,6.23
2018-03-06T23:56:44.408Z,7.10
2018-03-06T23:59:11.939Z,7.47
